createdAt,value
2016-11-14T00:00:08.431Z,0
2016-11-14T00:00:17.140Z,0
2016-11-14T00:00:25.881Z,0
2016-11-14T00:00:34.604Z,0
2016-11-14T00:00:43.340Z,0
2016-11-14T00:00:52.106Z,0
2016-11-14T00:01:00.806Z,0.02
2016-11-14T00:01:09.527Z,0
2016-11-14T00:01:18.231Z,0
2016-11-14T00:01:26.994Z,0.78
2016-11-14T00:01:35.721Z,0
2016-11-14T00:01:44.430Z,0.39
2016-11-14T00:01:53.131Z,0
2016-11-14T00:02:01.886Z,0
2016-11-14T00:02:10.582Z,0.1
2016-11-14T00:02:19.285Z,0.02
2016-11-14T00:02:27.986Z,50
2016-11-14T00:02:36.700Z,0
2016-11-14T00:02:45.441Z,0.02
2016-11-14T00:02:54.148Z,0
2016-11-14T00:03:02.886Z,0
2016-11-14T00:03:11.904Z,6.25
2016-11-14T00:03:20.606Z,0
2016-11-14T00:03:29.334Z,0
2016-11-14T00:03:38.052Z,0
2016-11-14T00:03:46.736Z,25
2016-11-14T00:03:55.484Z,0
2016-11-14T00:04:04.175Z,0
2016-11-14T00:04:12.842Z,0
2016-11-14T00:04:21.529Z,0
2016-11-14T00:04:30.248Z,0
2016-11-14T00:04:38.988Z,0
2016-11-14T00:04:47.700Z,0
2016-11-14T00:04:56.423Z,0
2016-11-14T00:05:05.146Z,0
2016-11-14T00:05:13.878Z,0
2016-11-14T00:05:22.587Z,0
2016-11-14T00:05:31.288Z,0
2016-11-14T00:05:39.991Z,0.19
2016-11-14T00:05:48.735Z,0
2016-11-14T00:05:57.429Z,0
2016-11-14T00:06:06.105Z,0
2016-11-14T00:06:14.813Z,0.02
2016-11-14T00:06:23.530Z,12.5
2016-11-14T00:06:32.253Z,1.56
2016-11-14T00:06:40.956Z,0
2016-11-14T00:06:49.615Z,0
2016-11-14T00:06:58.296Z,0
2016-11-14T00:07:07.007Z,0.39
2016-11-14T00:07:15.735Z,0
2016-11-14T00:07:24.467Z,0
2016-11-14T00:07:33.211Z,0
2016-11-14T00:07:41.935Z,0
2016-11-14T00:07:50.666Z,0
2016-11-14T00:07:59.439Z,0.19
2016-11-14T00:08:08.165Z,0
2016-11-14T00:08:16.883Z,50
2016-11-14T00:08:25.645Z,0
2016-11-14T00:08:34.371Z,0.19
2016-11-14T00:08:43.054Z,100
2016-11-14T00:08:51.811Z,3.12
2016-11-14T00:09:00.555Z,0
2016-11-14T00:09:09.291Z,0
2016-11-14T00:09:18.019Z,0.39
2016-11-14T00:09:26.762Z,0.05
2016-11-14T00:09:35.478Z,0
2016-11-14T00:09:44.189Z,0
2016-11-14T00:09:52.887Z,0
2016-11-14T00:10:01.634Z,0
2016-11-14T00:10:10.380Z,0
2016-11-14T00:10:19.075Z,0
2016-11-14T00:10:27.796Z,0
2016-11-14T00:10:36.455Z,0
2016-11-14T00:10:45.182Z,0
2016-11-14T00:10:53.907Z,0
2016-11-14T00:11:02.613Z,0
2016-11-14T00:11:11.321Z,0
2016-11-14T00:11:20.041Z,0.02
2016-11-14T00:11:28.761Z,0
2016-11-14T00:11:37.462Z,0
2016-11-14T00:11:46.180Z,0
2016-11-14T00:11:55.183Z,0
2016-11-14T00:12:03.837Z,1.56
2016-11-14T00:12:12.560Z,0.78
2016-11-14T00:12:21.247Z,0
2016-11-14T00:12:29.963Z,0
2016-11-14T00:12:38.657Z,50
2016-11-14T00:12:47.385Z,0
2016-11-14T00:12:56.126Z,0
2016-11-14T00:13:04.906Z,25
2016-11-14T00:13:13.609Z,0
2016-11-14T00:13:22.334Z,0
2016-11-14T00:13:31.057Z,0
2016-11-14T00:13:39.764Z,0
2016-11-14T00:13:48.449Z,0
2016-11-14T00:13:57.198Z,0
2016-11-14T00:14:05.961Z,0
2016-11-14T00:14:14.668Z,50
2016-11-14T00:14:23.367Z,0
2016-11-14T00:14:32.120Z,0
2016-11-14T00:14:40.823Z,0
2016-11-14T00:14:49.544Z,0
2016-11-14T00:14:58.284Z,0
2016-11-14T00:15:07.000Z,0
2016-11-14T00:15:15.730Z,12.5
2016-11-14T00:15:24.742Z,0
2016-11-14T00:15:33.444Z,0.39
2016-11-14T00:15:42.179Z,0
2016-11-14T00:15:51.169Z,0
2016-11-14T00:15:59.907Z,0
2016-11-14T00:16:08.610Z,0
2016-11-14T00:16:17.336Z,0
2016-11-14T00:16:26.061Z,0
2016-11-14T00:16:34.767Z,3.12
2016-11-14T00:16:43.459Z,0
2016-11-14T00:16:52.164Z,0
2016-11-14T00:17:00.857Z,0
2016-11-14T00:17:09.577Z,0.05
2016-11-14T00:17:18.301Z,0
2016-11-14T00:17:27.042Z,12.5
2016-11-14T00:17:35.735Z,0
2016-11-14T00:17:44.457Z,0
2016-11-14T00:17:53.155Z,0
2016-11-14T00:18:01.860Z,0
2016-11-14T00:18:10.558Z,0
2016-11-14T00:18:19.280Z,0
2016-11-14T00:18:27.987Z,0
2016-11-14T00:18:36.678Z,12.5
2016-11-14T00:18:45.387Z,0
2016-11-14T00:18:54.111Z,0
2016-11-14T00:19:02.806Z,0.02
2016-11-14T00:19:11.486Z,0
2016-11-14T00:19:20.247Z,50
2016-11-14T00:19:28.948Z,0
2016-11-14T00:19:37.657Z,0
2016-11-14T00:19:46.673Z,0
2016-11-14T00:19:55.414Z,0
2016-11-14T00:20:04.145Z,0
2016-11-14T00:20:12.802Z,0
2016-11-14T00:20:21.513Z,0
2016-11-14T00:20:30.247Z,0
2016-11-14T00:20:38.936Z,0
2016-11-14T00:20:47.609Z,3.12
2016-11-14T00:20:56.330Z,0
2016-11-14T00:21:05.039Z,0
2016-11-14T00:21:13.742Z,0
2016-11-14T00:21:22.484Z,12.5
2016-11-14T00:21:31.284Z,0
2016-11-14T00:21:40.220Z,0
2016-11-14T00:21:48.936Z,0
2016-11-14T00:21:57.642Z,0
2016-11-14T00:22:06.361Z,0
2016-11-14T00:22:15.080Z,0
2016-11-14T00:22:23.791Z,0
2016-11-14T00:22:32.476Z,0
2016-11-14T00:22:41.214Z,0
2016-11-14T00:22:49.937Z,0
2016-11-14T00:22:58.667Z,0
2016-11-14T00:23:07.358Z,0
2016-11-14T00:23:16.016Z,0
2016-11-14T00:23:24.741Z,0
2016-11-14T00:23:33.436Z,0
2016-11-14T00:23:42.113Z,0
2016-11-14T00:23:50.812Z,0
2016-11-14T00:23:59.549Z,0
2016-11-14T00:24:08.270Z,0
2016-11-14T00:24:16.991Z,0
2016-11-14T00:24:25.716Z,0
2016-11-14T00:24:34.434Z,0
2016-11-14T00:24:43.146Z,0
2016-11-14T00:24:51.838Z,0
2016-11-14T00:25:00.817Z,0
2016-11-14T00:25:09.554Z,0
2016-11-14T00:25:18.223Z,0
2016-11-14T00:25:26.984Z,0
2016-11-14T00:25:35.683Z,0
2016-11-14T00:25:44.362Z,0
2016-11-14T00:25:53.081Z,0
2016-11-14T00:26:01.770Z,0
2016-11-14T00:26:10.487Z,0
2016-11-14T00:26:19.467Z,6.25
2016-11-14T00:26:28.186Z,0
2016-11-14T00:26:36.942Z,0
2016-11-14T00:26:45.667Z,0.1
2016-11-14T00:26:54.374Z,0
2016-11-14T00:27:03.071Z,0
2016-11-14T00:27:11.790Z,0.02
2016-11-14T00:27:20.466Z,0
2016-11-14T00:27:29.169Z,0
2016-11-14T00:27:38.224Z,100
2016-11-14T00:27:46.942Z,0
2016-11-14T00:27:55.694Z,0
2016-11-14T00:28:04.413Z,0
2016-11-14T00:28:13.120Z,0
2016-11-14T00:28:21.841Z,1.56
2016-11-14T00:28:30.552Z,0
2016-11-14T00:28:39.230Z,0
2016-11-14T00:28:47.938Z,100
2016-11-14T00:28:56.650Z,0
2016-11-14T00:29:05.375Z,0
2016-11-14T00:29:14.124Z,0
2016-11-14T00:29:22.838Z,0
2016-11-14T00:29:31.556Z,0
2016-11-14T00:29:40.287Z,0.19
2016-11-14T00:29:49.021Z,100
2016-11-14T00:29:57.755Z,0
2016-11-14T00:30:06.491Z,0
2016-11-14T00:30:15.209Z,0
2016-11-14T00:30:23.906Z,0
2016-11-14T00:30:32.613Z,0
2016-11-14T00:30:41.358Z,0
2016-11-14T00:30:50.063Z,0
2016-11-14T00:30:58.721Z,0
2016-11-14T00:31:07.427Z,0
2016-11-14T00:31:16.180Z,0
2016-11-14T00:31:24.889Z,0
2016-11-14T00:31:33.576Z,0
2016-11-14T00:31:42.309Z,0
2016-11-14T00:31:51.009Z,0
2016-11-14T00:31:59.739Z,0.05
2016-11-14T00:32:08.488Z,0.01
2016-11-14T00:32:17.201Z,0
2016-11-14T00:32:25.888Z,1.56
2016-11-14T00:32:34.585Z,0
2016-11-14T00:32:43.326Z,0.39
2016-11-14T00:32:52.069Z,0.39
2016-11-14T00:33:00.723Z,0
2016-11-14T00:33:09.471Z,1.56
2016-11-14T00:33:18.186Z,0.39
2016-11-14T00:33:26.902Z,0
2016-11-14T00:33:35.569Z,0
2016-11-14T00:33:44.290Z,0.39
2016-11-14T00:33:52.974Z,12.5
2016-11-14T00:34:01.669Z,0
2016-11-14T00:34:10.331Z,0
2016-11-14T00:34:19.089Z,0.78
2016-11-14T00:34:27.823Z,100
2016-11-14T00:34:36.558Z,0.02
2016-11-14T00:34:45.258Z,0
2016-11-14T00:34:53.963Z,0
2016-11-14T00:35:02.719Z,0
2016-11-14T00:35:11.430Z,0
2016-11-14T00:35:20.170Z,0
2016-11-14T00:35:28.873Z,0
2016-11-14T00:35:37.532Z,0
2016-11-14T00:35:46.194Z,0
2016-11-14T00:35:54.938Z,0
2016-11-14T00:36:03.639Z,0
2016-11-14T00:36:12.353Z,0
2016-11-14T00:36:21.060Z,0
2016-11-14T00:36:29.760Z,0
2016-11-14T00:36:38.504Z,0
2016-11-14T00:36:47.212Z,0
2016-11-14T00:36:55.932Z,0
2016-11-14T00:37:04.655Z,0
2016-11-14T00:37:13.381Z,0
2016-11-14T00:37:22.143Z,0
2016-11-14T00:37:30.896Z,0
2016-11-14T00:37:39.632Z,0
2016-11-14T00:37:48.346Z,0
2016-11-14T00:37:57.012Z,0
2016-11-14T00:38:05.748Z,0
2016-11-14T00:38:14.462Z,25
2016-11-14T00:38:23.140Z,0.39
2016-11-14T00:38:31.889Z,0
2016-11-14T00:38:40.594Z,0
2016-11-14T00:38:49.332Z,0
2016-11-14T00:38:58.073Z,0
2016-11-14T00:39:06.767Z,0
2016-11-14T00:39:15.479Z,0
2016-11-14T00:39:24.238Z,0
2016-11-14T00:39:32.934Z,0
2016-11-14T00:39:41.688Z,1.56
2016-11-14T00:39:50.396Z,0
2016-11-14T00:39:59.149Z,100
2016-11-14T00:40:07.863Z,0
2016-11-14T00:40:16.519Z,0
2016-11-14T00:40:25.202Z,0
2016-11-14T00:40:33.876Z,0
2016-11-14T00:40:42.603Z,0
2016-11-14T00:40:51.343Z,0
2016-11-14T00:41:00.097Z,0
2016-11-14T00:41:08.819Z,0
2016-11-14T00:41:17.561Z,0
2016-11-14T00:41:26.276Z,0
2016-11-14T00:41:34.972Z,0
2016-11-14T00:41:43.683Z,0
2016-11-14T00:41:52.344Z,0
2016-11-14T00:42:01.066Z,0
2016-11-14T00:42:09.793Z,0
2016-11-14T00:42:18.512Z,0
2016-11-14T00:42:27.218Z,0
2016-11-14T00:42:35.937Z,0
2016-11-14T00:42:44.668Z,0
2016-11-14T00:42:53.411Z,0
2016-11-14T00:43:02.173Z,0
2016-11-14T00:43:10.951Z,0
2016-11-14T00:43:19.669Z,0
2016-11-14T00:43:28.391Z,0
2016-11-14T00:43:37.112Z,0
2016-11-14T00:43:45.799Z,0.39
2016-11-14T00:43:54.544Z,0.1
2016-11-14T00:44:03.264Z,0
2016-11-14T00:44:11.994Z,0
2016-11-14T00:44:20.683Z,0.39
2016-11-14T00:44:29.417Z,0
2016-11-14T00:44:38.101Z,0
2016-11-14T00:44:46.816Z,0
2016-11-14T00:44:55.526Z,100
2016-11-14T00:45:04.250Z,0
2016-11-14T00:45:12.987Z,0
2016-11-14T00:45:21.687Z,0
2016-11-14T00:45:30.413Z,0
2016-11-14T00:45:39.148Z,0
2016-11-14T00:45:47.869Z,0
2016-11-14T00:45:56.604Z,0.05
2016-11-14T00:46:05.347Z,0
2016-11-14T00:46:14.063Z,0
2016-11-14T00:46:22.763Z,0
2016-11-14T00:46:31.465Z,100
2016-11-14T00:46:40.191Z,0
2016-11-14T00:46:48.890Z,0.39
2016-11-14T00:46:57.858Z,0
2016-11-14T00:47:06.594Z,0
2016-11-14T00:47:15.287Z,0
2016-11-14T00:47:23.965Z,0
2016-11-14T00:47:32.673Z,0
2016-11-14T00:47:41.370Z,0.39
2016-11-14T00:47:50.088Z,0
2016-11-14T00:47:58.809Z,0
2016-11-14T00:48:07.579Z,0
2016-11-14T00:48:16.307Z,0
2016-11-14T00:48:25.028Z,0
2016-11-14T00:48:33.753Z,100
2016-11-14T00:48:42.481Z,0
2016-11-14T00:48:51.180Z,0
2016-11-14T00:48:59.907Z,0
2016-11-14T00:49:08.580Z,0
2016-11-14T00:49:17.321Z,0.78
2016-11-14T00:49:26.298Z,0
2016-11-14T00:49:35.086Z,0
2016-11-14T00:49:43.786Z,0
2016-11-14T00:49:52.526Z,0
2016-11-14T00:50:01.229Z,0
2016-11-14T00:50:10.233Z,1.56
2016-11-14T00:50:18.937Z,0
2016-11-14T00:50:27.658Z,0
2016-11-14T00:50:36.336Z,100
2016-11-14T00:50:45.036Z,0.39
2016-11-14T00:50:53.754Z,0
2016-11-14T00:51:02.451Z,0
2016-11-14T00:51:11.139Z,0
2016-11-14T00:51:19.824Z,0
2016-11-14T00:51:28.556Z,0
2016-11-14T00:51:37.269Z,0
2016-11-14T00:51:46.155Z,0
2016-11-14T00:51:54.923Z,0
2016-11-14T00:52:03.641Z,0
2016-11-14T00:52:12.350Z,0.1
2016-11-14T00:52:21.063Z,0
2016-11-14T00:52:29.745Z,0
2016-11-14T00:52:38.472Z,0
2016-11-14T00:52:47.172Z,0
2016-11-14T00:52:55.848Z,0
2016-11-14T00:53:04.540Z,0
2016-11-14T00:53:13.279Z,0
2016-11-14T00:53:21.986Z,0
2016-11-14T00:53:30.695Z,0
2016-11-14T00:53:39.707Z,0
2016-11-14T00:53:48.416Z,0
2016-11-14T00:53:57.156Z,0
2016-11-14T00:54:05.913Z,0
2016-11-14T00:54:14.637Z,0
2016-11-14T00:54:23.363Z,0
2016-11-14T00:54:32.100Z,0
2016-11-14T00:54:40.781Z,0
2016-11-14T00:54:49.512Z,0
2016-11-14T00:54:58.247Z,6.25
2016-11-14T00:55:06.926Z,0
2016-11-14T00:55:15.646Z,0.1
2016-11-14T00:55:24.389Z,0
2016-11-14T00:55:33.067Z,0
2016-11-14T00:55:41.799Z,0
2016-11-14T00:55:50.523Z,0
2016-11-14T00:55:59.216Z,0
2016-11-14T00:56:07.901Z,0
2016-11-14T00:56:16.614Z,0
2016-11-14T00:56:25.630Z,0
2016-11-14T00:56:34.378Z,0
2016-11-14T00:56:43.067Z,0
2016-11-14T00:56:51.778Z,0
2016-11-14T00:57:00.762Z,0
2016-11-14T00:57:09.505Z,0
2016-11-14T00:57:18.227Z,0
2016-11-14T00:57:26.936Z,100
2016-11-14T00:57:35.969Z,0
2016-11-14T00:57:44.689Z,0
2016-11-14T00:57:53.408Z,0
2016-11-14T00:58:02.118Z,0
2016-11-14T00:58:10.835Z,50
2016-11-14T00:58:19.535Z,0
2016-11-14T00:58:28.277Z,0
2016-11-14T00:58:36.962Z,0.39
2016-11-14T00:58:45.943Z,0
2016-11-14T00:58:54.648Z,0
2016-11-14T00:59:03.396Z,0
2016-11-14T00:59:12.111Z,100
2016-11-14T00:59:20.795Z,0
2016-11-14T00:59:29.541Z,0
2016-11-14T00:59:38.227Z,0
2016-11-14T00:59:46.903Z,0
2016-11-14T00:59:55.694Z,0
2016-11-14T01:00:04.724Z,0
2016-11-14T01:00:13.429Z,0
2016-11-14T01:00:22.405Z,0
2016-11-14T01:00:31.081Z,0
2016-11-14T01:00:39.820Z,0
2016-11-14T01:00:48.525Z,0
2016-11-14T01:00:57.211Z,0
2016-11-14T01:01:05.902Z,0
2016-11-14T01:01:14.934Z,0
2016-11-14T01:01:23.649Z,0
2016-11-14T01:01:32.327Z,0
2016-11-14T01:01:41.052Z,0
2016-11-14T01:01:49.781Z,0
2016-11-14T01:01:58.482Z,0.39
2016-11-14T01:02:07.181Z,25
2016-11-14T01:02:15.923Z,0
2016-11-14T01:02:24.659Z,0
2016-11-14T01:02:33.341Z,0
2016-11-14T01:02:42.089Z,100
2016-11-14T01:02:50.830Z,0
2016-11-14T01:02:59.543Z,0
2016-11-14T01:03:08.249Z,0
2016-11-14T01:03:16.957Z,0
2016-11-14T01:03:25.655Z,25
2016-11-14T01:03:34.412Z,100
2016-11-14T01:03:43.130Z,0
2016-11-14T01:03:51.842Z,0
2016-11-14T01:04:00.566Z,0
2016-11-14T01:04:09.244Z,0
2016-11-14T01:04:17.908Z,100
2016-11-14T01:04:26.588Z,0
2016-11-14T01:04:35.347Z,1.56
2016-11-14T01:04:44.052Z,0
2016-11-14T01:04:52.801Z,0
2016-11-14T01:05:01.505Z,0
2016-11-14T01:05:10.221Z,0
2016-11-14T01:05:18.927Z,0
2016-11-14T01:05:27.622Z,0
2016-11-14T01:05:36.354Z,0
2016-11-14T01:05:45.041Z,0
2016-11-14T01:05:54.023Z,100
2016-11-14T01:06:02.729Z,0.39
2016-11-14T01:06:11.467Z,0
2016-11-14T01:06:20.201Z,0
2016-11-14T01:06:28.901Z,0
2016-11-14T01:06:37.600Z,0
2016-11-14T01:06:46.284Z,0
2016-11-14T01:06:55.019Z,0
2016-11-14T01:07:03.737Z,50
2016-11-14T01:07:12.430Z,0
2016-11-14T01:07:21.142Z,0
2016-11-14T01:07:29.818Z,0
2016-11-14T01:07:38.552Z,0
2016-11-14T01:07:47.295Z,0
2016-11-14T01:07:56.013Z,0
2016-11-14T01:08:04.722Z,25
2016-11-14T01:08:13.427Z,0
2016-11-14T01:08:22.131Z,66.17
2016-11-14T01:08:30.852Z,66.27
2016-11-14T01:08:39.553Z,66.24
2016-11-14T01:08:48.268Z,66.24
2016-11-14T01:08:56.999Z,66.27
2016-11-14T01:09:06.014Z,66.27
2016-11-14T01:09:14.736Z,66.27
2016-11-14T01:09:23.481Z,66.27
2016-11-14T01:09:32.194Z,66.36
2016-11-14T01:09:40.901Z,66.24
2016-11-14T01:09:49.583Z,66.14
2016-11-14T01:09:58.284Z,66.05
2016-11-14T01:10:07.041Z,65.95
2016-11-14T01:10:15.744Z,66.05
2016-11-14T01:10:24.442Z,66.05
2016-11-14T01:10:33.448Z,66.14
2016-11-14T01:10:42.107Z,66.14
2016-11-14T01:10:50.816Z,66.14
2016-11-14T01:10:59.557Z,66.14
2016-11-14T01:11:08.258Z,66.05
2016-11-14T01:11:17.000Z,65.89
2016-11-14T01:11:25.684Z,65.95
2016-11-14T01:11:34.393Z,65.95
2016-11-14T01:11:43.137Z,66.05
2016-11-14T01:11:51.863Z,66.17
2016-11-14T01:12:00.604Z,66.24
2016-11-14T01:12:09.260Z,66.24
2016-11-14T01:12:17.990Z,66.46
2016-11-14T01:12:26.741Z,66.46
2016-11-14T01:12:35.447Z,66.46
2016-11-14T01:12:44.147Z,66.55
2016-11-14T01:12:52.835Z,66.55
2016-11-14T01:13:01.606Z,66.55
2016-11-14T01:13:10.311Z,66.74
2016-11-14T01:13:19.003Z,66.83
2016-11-14T01:13:27.748Z,66.83
2016-11-14T01:13:36.422Z,66.83
2016-11-14T01:13:45.153Z,66.83
2016-11-14T01:13:53.849Z,66.55
2016-11-14T01:14:02.572Z,66.55
2016-11-14T01:14:11.323Z,66.64
2016-11-14T01:14:20.028Z,66.64
2016-11-14T01:14:28.738Z,66.64
2016-11-14T01:14:37.460Z,68.72
2016-11-14T01:14:46.125Z,0
2016-11-14T01:14:54.827Z,0
2016-11-14T01:15:03.559Z,0
2016-11-14T01:15:12.316Z,6.25
2016-11-14T01:15:21.066Z,0
2016-11-14T01:15:29.792Z,0
2016-11-14T01:15:38.531Z,0
2016-11-14T01:15:47.234Z,0
2016-11-14T01:15:55.942Z,0
2016-11-14T01:16:04.628Z,0
2016-11-14T01:16:13.346Z,0
2016-11-14T01:16:22.069Z,0
2016-11-14T01:16:30.768Z,0
2016-11-14T01:16:39.467Z,0.39
2016-11-14T01:16:48.222Z,0
2016-11-14T01:16:56.923Z,0
2016-11-14T01:17:05.607Z,6.25
2016-11-14T01:17:14.321Z,0
2016-11-14T01:17:23.030Z,6.25
2016-11-14T01:17:31.796Z,0
2016-11-14T01:17:40.508Z,0
2016-11-14T01:17:49.196Z,100
2016-11-14T01:17:57.913Z,25
2016-11-14T01:18:06.885Z,0
2016-11-14T01:18:15.583Z,0
2016-11-14T01:18:24.267Z,0
2016-11-14T01:18:33.019Z,0
2016-11-14T01:18:41.736Z,0
2016-11-14T01:18:50.441Z,0
2016-11-14T01:18:59.167Z,0
2016-11-14T01:19:07.925Z,1.56
2016-11-14T01:19:16.716Z,0
2016-11-14T01:19:25.421Z,0
2016-11-14T01:19:34.150Z,67.08
2016-11-14T01:19:42.895Z,66.99
2016-11-14T01:19:51.628Z,66.89
2016-11-14T01:20:00.647Z,66.8
2016-11-14T01:20:09.390Z,66.71
2016-11-14T01:20:18.091Z,66.61
2016-11-14T01:20:26.820Z,66.71
2016-11-14T01:20:35.491Z,66.71
2016-11-14T01:20:44.244Z,66.8
2016-11-14T01:20:52.954Z,66.8
2016-11-14T01:21:01.663Z,66.89
2016-11-14T01:21:10.378Z,66.99
2016-11-14T01:21:19.107Z,66.99
2016-11-14T01:21:27.798Z,66.99
2016-11-14T01:21:36.523Z,67.08
2016-11-14T01:21:45.290Z,67.08
2016-11-14T01:21:54.011Z,67.18
2016-11-14T01:22:02.728Z,67.18
2016-11-14T01:22:11.418Z,67.18
2016-11-14T01:22:20.147Z,67.18
2016-11-14T01:22:28.850Z,67.18
2016-11-14T01:22:37.566Z,67.18
2016-11-14T01:22:46.273Z,67.18
2016-11-14T01:22:55.021Z,67.27
2016-11-14T01:23:03.786Z,67.27
2016-11-14T01:23:12.523Z,67.27
2016-11-14T01:23:21.225Z,67.27
2016-11-14T01:23:29.939Z,67.36
2016-11-14T01:23:38.636Z,67.36
2016-11-14T01:23:47.367Z,67.36
2016-11-14T01:23:56.070Z,67.46
2016-11-14T01:24:04.813Z,67.46
2016-11-14T01:24:13.572Z,67.55
2016-11-14T01:24:22.272Z,67.55
2016-11-14T01:24:31.034Z,67.55
2016-11-14T01:24:39.717Z,67.55
2016-11-14T01:24:48.488Z,67.65
2016-11-14T01:24:57.210Z,67.65
2016-11-14T01:25:05.976Z,67.65
2016-11-14T01:25:14.677Z,67.65
2016-11-14T01:25:23.379Z,67.65
2016-11-14T01:25:32.092Z,67.65
2016-11-14T01:25:40.832Z,67.55
2016-11-14T01:25:49.559Z,67.55
2016-11-14T01:25:58.286Z,67.55
2016-11-14T01:26:07.018Z,67.46
2016-11-14T01:26:15.718Z,67.46
2016-11-14T01:26:24.406Z,67.46
2016-11-14T01:26:33.119Z,67.46
2016-11-14T01:26:41.828Z,67.55
2016-11-14T01:26:50.546Z,67.55
2016-11-14T01:26:59.264Z,67.65
2016-11-14T01:27:07.987Z,67.46
2016-11-14T01:27:16.693Z,67.46
2016-11-14T01:27:25.675Z,67.46
2016-11-14T01:27:34.400Z,67.55
2016-11-14T01:27:43.120Z,67.55
2016-11-14T01:27:51.829Z,67.65
2016-11-14T01:28:00.552Z,67.74
2016-11-14T01:28:09.307Z,67.74
2016-11-14T01:28:18.035Z,67.74
2016-11-14T01:28:26.729Z,67.74
2016-11-14T01:28:35.449Z,67.74
2016-11-14T01:28:44.186Z,67.74
2016-11-14T01:28:52.928Z,67.74
2016-11-14T01:29:01.632Z,67.74
2016-11-14T01:29:10.371Z,67.84
2016-11-14T01:29:19.100Z,67.84
2016-11-14T01:29:27.856Z,67.84
2016-11-14T01:29:36.615Z,67.74
2016-11-14T01:29:45.280Z,67.74
2016-11-14T01:29:54.002Z,67.74
2016-11-14T01:30:02.748Z,67.84
2016-11-14T01:30:11.467Z,67.84
2016-11-14T01:30:20.173Z,67.84
2016-11-14T01:30:28.870Z,67.84
2016-11-14T01:30:37.561Z,67.84
2016-11-14T01:30:46.279Z,67.84
2016-11-14T01:30:54.991Z,67.93
2016-11-14T01:31:03.700Z,67.93
2016-11-14T01:31:12.443Z,68.02
2016-11-14T01:31:21.142Z,68.02
2016-11-14T01:31:30.142Z,68.12
2016-11-14T01:31:38.863Z,68.12
2016-11-14T01:31:47.528Z,68.21
2016-11-14T01:31:56.256Z,68.21
2016-11-14T01:32:04.948Z,68.21
2016-11-14T01:32:13.628Z,68.21
2016-11-14T01:32:22.349Z,68.31
2016-11-14T01:32:31.048Z,68.31
2016-11-14T01:32:39.789Z,68.21
2016-11-14T01:32:48.509Z,68.21
2016-11-14T01:32:57.533Z,68.21
2016-11-14T01:33:06.221Z,68.21
2016-11-14T01:33:14.945Z,68.12
2016-11-14T01:33:23.710Z,68.02
2016-11-14T01:33:32.411Z,68.02
2016-11-14T01:33:41.152Z,67.93
2016-11-14T01:33:49.864Z,67.93
2016-11-14T01:33:58.554Z,67.93
2016-11-14T01:34:07.258Z,68.02
2016-11-14T01:34:16.009Z,68.02
2016-11-14T01:34:24.739Z,68.12
2016-11-14T01:34:33.407Z,68.12
2016-11-14T01:34:42.116Z,68.12
2016-11-14T01:34:50.840Z,68.02
2016-11-14T01:34:59.546Z,67.93
2016-11-14T01:35:08.260Z,67.93
2016-11-14T01:35:16.934Z,67.84
2016-11-14T01:35:25.697Z,67.84
2016-11-14T01:35:34.385Z,67.84
2016-11-14T01:35:43.133Z,67.84
2016-11-14T01:35:51.841Z,67.65
2016-11-14T01:36:00.581Z,67.65
2016-11-14T01:36:09.278Z,0
2016-11-14T01:36:18.003Z,0
2016-11-14T01:36:26.696Z,68.06
2016-11-14T01:36:35.374Z,67.97
2016-11-14T01:36:44.121Z,0
2016-11-14T01:36:52.880Z,67.97
2016-11-14T01:37:01.576Z,67.93
2016-11-14T01:37:10.310Z,68.4
2016-11-14T01:37:19.027Z,0
2016-11-14T01:37:27.739Z,0
2016-11-14T01:37:36.485Z,0
2016-11-14T01:37:45.227Z,0
2016-11-14T01:37:53.939Z,0
2016-11-14T01:38:02.684Z,0
2016-11-14T01:38:11.389Z,0
2016-11-14T01:38:20.088Z,0
2016-11-14T01:38:28.814Z,0
2016-11-14T01:38:37.826Z,0
2016-11-14T01:38:46.532Z,0
2016-11-14T01:38:55.246Z,68.21
2016-11-14T01:39:03.944Z,68.12
2016-11-14T01:39:12.670Z,68.02
2016-11-14T01:39:21.379Z,67.93
2016-11-14T01:39:30.105Z,67.84
2016-11-14T01:39:38.800Z,67.84
2016-11-14T01:39:47.480Z,67.74
2016-11-14T01:39:56.164Z,67.84
2016-11-14T01:40:04.885Z,67.84
2016-11-14T01:40:13.618Z,67.84
2016-11-14T01:40:22.597Z,67.74
2016-11-14T01:40:31.306Z,19.69
2016-11-14T01:40:39.984Z,19.62
2016-11-14T01:40:48.694Z,67.74
2016-11-14T01:40:57.677Z,19.8
2016-11-14T01:41:06.398Z,67.74
2016-11-14T01:41:15.121Z,0
2016-11-14T01:41:23.815Z,72.17
2016-11-14T01:41:32.522Z,0
2016-11-14T01:41:41.235Z,72.38
2016-11-14T01:41:49.981Z,72.53
2016-11-14T01:41:58.705Z,69.19
2016-11-14T01:42:07.424Z,72.27
2016-11-14T01:42:16.110Z,71.8
2016-11-14T01:42:24.812Z,70.62
2016-11-14T01:42:33.535Z,72.11
2016-11-14T01:42:42.286Z,69.95
2016-11-14T01:42:51.259Z,71.83
2016-11-14T01:42:59.992Z,70.89
2016-11-14T01:43:08.660Z,71.55
2016-11-14T01:43:17.381Z,72.61
2016-11-14T01:43:26.091Z,71.64
2016-11-14T01:43:34.811Z,0
2016-11-14T01:43:43.511Z,0
2016-11-14T01:43:52.225Z,0
2016-11-14T01:44:00.962Z,0
2016-11-14T01:44:09.699Z,0
2016-11-14T01:44:18.418Z,67.97
2016-11-14T01:44:27.161Z,67.97
2016-11-14T01:44:35.878Z,67.87
2016-11-14T01:44:44.591Z,67.87
2016-11-14T01:44:53.280Z,70.23
2016-11-14T01:45:01.972Z,67.97
2016-11-14T01:45:10.662Z,68.06
2016-11-14T01:45:19.357Z,67.97
2016-11-14T01:45:28.044Z,68.06
2016-11-14T01:45:36.733Z,67.97
2016-11-14T01:45:45.454Z,67.97
2016-11-14T01:45:54.204Z,67.97
2016-11-14T01:46:02.887Z,67.97
2016-11-14T01:46:11.573Z,67.97
2016-11-14T01:46:20.265Z,68.15
2016-11-14T01:46:28.969Z,69.57
2016-11-14T01:46:37.716Z,73.07
2016-11-14T01:46:46.436Z,71.34
2016-11-14T01:46:55.497Z,25
2016-11-14T01:47:04.204Z,0
2016-11-14T01:47:12.891Z,0
2016-11-14T01:47:21.599Z,0
2016-11-14T01:47:30.300Z,50
2016-11-14T01:47:39.044Z,0
2016-11-14T01:47:47.772Z,0.02
2016-11-14T01:47:56.488Z,0
2016-11-14T01:48:05.192Z,0
2016-11-14T01:48:13.880Z,0.39
2016-11-14T01:48:22.635Z,0
2016-11-14T01:48:31.323Z,0
2016-11-14T01:48:40.067Z,0
2016-11-14T01:48:48.770Z,0
2016-11-14T01:48:57.468Z,0
2016-11-14T01:49:06.170Z,0
2016-11-14T01:49:14.874Z,0
2016-11-14T01:49:23.572Z,0
2016-11-14T01:49:32.271Z,0
2016-11-14T01:49:40.949Z,0
2016-11-14T01:49:49.669Z,0
2016-11-14T01:49:58.398Z,0
2016-11-14T01:50:07.140Z,6.25
2016-11-14T01:50:15.824Z,0.39
2016-11-14T01:50:24.504Z,0
2016-11-14T01:50:33.202Z,25
2016-11-14T01:50:41.917Z,0
2016-11-14T01:50:50.599Z,0
2016-11-14T01:50:59.327Z,0
2016-11-14T01:51:08.035Z,0
2016-11-14T01:51:16.720Z,0
2016-11-14T01:51:25.465Z,0.39
2016-11-14T01:51:34.162Z,0.39
2016-11-14T01:51:42.864Z,0
2016-11-14T01:51:51.603Z,0
2016-11-14T01:52:00.329Z,0
2016-11-14T01:52:09.061Z,0
2016-11-14T01:52:17.824Z,0.19
2016-11-14T01:52:26.530Z,0
2016-11-14T01:52:35.229Z,0
2016-11-14T01:52:43.965Z,0
2016-11-14T01:52:52.746Z,0
2016-11-14T01:53:01.460Z,0
2016-11-14T01:53:10.184Z,3.12
2016-11-14T01:53:18.880Z,0
2016-11-14T01:53:27.614Z,0
2016-11-14T01:53:36.308Z,0
2016-11-14T01:53:45.014Z,0.39
2016-11-14T01:53:53.740Z,0
2016-11-14T01:54:02.458Z,6.25
2016-11-14T01:54:11.164Z,25
2016-11-14T01:54:19.867Z,0.39
2016-11-14T01:54:28.652Z,0
2016-11-14T01:54:37.352Z,3.12
2016-11-14T01:54:46.059Z,0.05
2016-11-14T01:54:54.789Z,0
2016-11-14T01:55:03.567Z,0
2016-11-14T01:55:12.308Z,0
2016-11-14T01:55:21.006Z,50
2016-11-14T01:55:29.716Z,0.39
2016-11-14T01:55:38.437Z,0
2016-11-14T01:55:47.196Z,0
2016-11-14T01:55:55.940Z,0
2016-11-14T01:56:04.665Z,0
2016-11-14T01:56:13.421Z,0
2016-11-14T01:56:22.158Z,0
2016-11-14T01:56:30.880Z,12.5
2016-11-14T01:56:39.578Z,0
2016-11-14T01:56:48.302Z,0
2016-11-14T01:56:57.019Z,1.56
2016-11-14T01:57:06.035Z,0.78
2016-11-14T01:57:14.735Z,25
2016-11-14T01:57:23.437Z,69.53
2016-11-14T01:57:32.165Z,69.53
2016-11-14T01:57:41.174Z,69.53
2016-11-14T01:57:49.886Z,69.53
2016-11-14T01:57:58.584Z,69.63
2016-11-14T01:58:07.296Z,69.63
2016-11-14T01:58:15.979Z,69.72
2016-11-14T01:58:24.682Z,69.72
2016-11-14T01:58:33.437Z,69.82
2016-11-14T01:58:42.193Z,69.82
2016-11-14T01:58:50.900Z,69.82
2016-11-14T01:58:59.623Z,69.82
2016-11-14T01:59:08.367Z,69.91
2016-11-14T01:59:17.078Z,69.91
2016-11-14T01:59:25.798Z,69.91
2016-11-14T01:59:34.546Z,69.82
2016-11-14T01:59:43.259Z,69.72
2016-11-14T01:59:51.964Z,69.82
2016-11-14T02:00:00.726Z,69.91
2016-11-14T02:00:09.429Z,69.91
2016-11-14T02:00:18.122Z,69.91
2016-11-14T02:00:26.809Z,69.91
2016-11-14T02:00:35.523Z,69.91
2016-11-14T02:00:44.186Z,69.82
2016-11-14T02:00:52.935Z,69.82
2016-11-14T02:01:01.628Z,69.82
2016-11-14T02:01:10.317Z,69.82
2016-11-14T02:01:18.995Z,69.82
2016-11-14T02:01:27.746Z,69.82
2016-11-14T02:01:36.467Z,69.82
2016-11-14T02:01:45.217Z,69.82
2016-11-14T02:01:53.939Z,69.82
2016-11-14T02:02:02.694Z,69.63
2016-11-14T02:02:11.378Z,69.63